Terminal Aerodrome Forecast
Issued by NWS Spokane, WA

Home | Current Version | Previous Version | Text Only | Print | Product List | Glossary On
Versions: 1 2 3 4 5 6 7 8 9 10 11 12 13 14 15 16 17 18 19 20 21 22 23 24 25 26
000
FTUS46 KOTX 050529
TAFGEG
TAF
KGEG 050529Z 0506/0606 36009G15KT P6SM FEW100
     FM050900 35011G18KT P6SM SCT100
     FM051100 01015G25KT P6SM SCT100
     FM051400 02012G19KT P6SM FEW050 SCT100
     FM052000 02014KT P6SM FEW050
     FM060300 03007KT P6SM SKC=

USA.gov is the U.S. government's official web portal to all federal, state and local government web resources and services.